sensor_id;sensor_type;location;lat;lon;timestamp;temperature;humidity
22069;DHT22;13887;57.196;-2.100;2022-07-29T00:01:43;16.29;81.59
22069;DHT22;13887;57.196;-2.100;2022-07-29T00:04:10;16.26;81.59
22069;DHT22;13887;57.196;-2.100;2022-07-29T00:06:37;16.28;81.04
22069;DHT22;13887;57.196;-2.100;2022-07-29T00:09:03;16.27;80.53
22069;DHT22;13887;57.196;-2.100;2022-07-29T00:11:29;16.27;80.59
22069;DHT22;13887;57.196;-2.100;2022-07-29T00:13:55;16.28;80.81
22069;DHT22;13887;57.196;-2.100;2022-07-29T00:16:22;16.26;81.13
22069;DHT22;13887;57.196;-2.100;2022-07-29T00:18:49;16.26;81.01
22069;DHT22;13887;57.196;-2.100;2022-07-29T00:21:15;16.25;80.91
22069;DHT22;13887;57.196;-2.100;2022-07-29T00:23:41;16.24;81.00
22069;DHT22;13887;57.196;-2.100;2022-07-29T00:26:07;16.21;81.23
22069;DHT22;13887;57.196;-2.100;2022-07-29T00:28:34;16.21;81.26
22069;DHT22;13887;57.196;-2.100;2022-07-29T00:31:00;16.21;81.38
22069;DHT22;13887;57.196;-2.100;2022-07-29T00:33:28;16.21;81.41
22069;DHT22;13887;57.196;-2.100;2022-07-29T00:35:54;16.21;81.01
22069;DHT22;13887;57.196;-2.100;2022-07-29T00:38:22;16.20;80.38
22069;DHT22;13887;57.196;-2.100;2022-07-29T00:40:49;16.19;80.64
22069;DHT22;13887;57.196;-2.100;2022-07-29T00:43:16;16.20;80.84
22069;DHT22;13887;57.196;-2.100;2022-07-29T00:45:43;16.19;80.75
22069;DHT22;13887;57.196;-2.100;2022-07-29T00:48:10;16.21;80.25
22069;DHT22;13887;57.196;-2.100;2022-07-29T00:50:37;16.19;80.29
22069;DHT22;13887;57.196;-2.100;2022-07-29T00:53:05;16.16;80.62
22069;DHT22;13887;57.196;-2.100;2022-07-29T00:55:31;16.16;80.92
22069;DHT22;13887;57.196;-2.100;2022-07-29T00:57:58;16.16;80.49
22069;DHT22;13887;57.196;-2.100;2022-07-29T01:00:26;16.17;80.49
22069;DHT22;13887;57.196;-2.100;2022-07-29T01:02:53;16.16;80.65
22069;DHT22;13887;57.196;-2.100;2022-07-29T01:05:22;16.14;80.57
22069;DHT22;13887;57.196;-2.100;2022-07-29T01:07:51;16.14;80.68
22069;DHT22;13887;57.196;-2.100;2022-07-29T01:10:19;16.13;80.88
22069;DHT22;13887;57.196;-2.100;2022-07-29T01:12:49;16.13;80.73
22069;DHT22;13887;57.196;-2.100;2022-07-29T01:15:16;16.14;80.35
22069;DHT22;13887;57.196;-2.100;2022-07-29T01:26:52;16.12;80.28
22069;DHT22;13887;57.196;-2.100;2022-07-29T01:29:38;16.11;80.26
22069;DHT22;13887;57.196;-2.100;2022-07-29T01:32:19;16.13;80.04
22069;DHT22;13887;57.196;-2.100;2022-07-29T01:35:02;16.13;79.83
22069;DHT22;13887;57.196;-2.100;2022-07-29T01:37:52;16.12;80.11
22069;DHT22;13887;57.196;-2.100;2022-07-29T01:40:45;16.11;79.98
22069;DHT22;13887;57.196;-2.100;2022-07-29T01:43:16;16.11;79.98
22069;DHT22;13887;57.196;-2.100;2022-07-29T01:45:52;16.12;79.98
22069;DHT22;13887;57.196;-2.100;2022-07-29T01:48:31;16.13;80.05
22069;DHT22;13887;57.196;-2.100;2022-07-29T01:53:50;16.11;80.05
22069;DHT22;13887;57.196;-2.100;2022-07-29T01:56:19;16.11;79.87
22069;DHT22;13887;57.196;-2.100;2022-07-29T01:58:47;16.13;79.70
22069;DHT22;13887;57.196;-2.100;2022-07-29T02:01:15;16.11;79.70
22069;DHT22;13887;57.196;-2.100;2022-07-29T02:03:45;16.11;79.72
22069;DHT22;13887;57.196;-2.100;2022-07-29T02:06:16;16.11;79.68
22069;DHT22;13887;57.196;-2.100;2022-07-29T02:08:44;16.12;79.71
22069;DHT22;13887;57.196;-2.100;2022-07-29T02:11:11;16.12;79.69
22069;DHT22;13887;57.196;-2.100;2022-07-29T02:13:38;16.10;79.66
22069;DHT22;13887;57.196;-2.100;2022-07-29T02:16:06;16.08;79.78
22069;DHT22;13887;57.196;-2.100;2022-07-29T02:18:36;16.08;79.90
22069;DHT22;13887;57.196;-2.100;2022-07-29T02:21:03;16.07;80.09
22069;DHT22;13887;57.196;-2.100;2022-07-29T02:23:30;16.08;80.12
22069;DHT22;13887;57.196;-2.100;2022-07-29T02:26:17;16.08;79.80
22069;DHT22;13887;57.196;-2.100;2022-07-29T02:28:45;16.07;79.69
22069;DHT22;13887;57.196;-2.100;2022-07-29T02:31:13;16.08;79.72
22069;DHT22;13887;57.196;-2.100;2022-07-29T02:33:40;16.07;79.60
22069;DHT22;13887;57.196;-2.100;2022-07-29T02:36:07;16.08;79.59
22069;DHT22;13887;57.196;-2.100;2022-07-29T02:38:34;16.07;79.51
22069;DHT22;13887;57.196;-2.100;2022-07-29T02:41:23;16.05;79.51
22069;DHT22;13887;57.196;-2.100;2022-07-29T02:43:54;16.06;79.53
22069;DHT22;13887;57.196;-2.100;2022-07-29T02:46:29;16.06;79.59
22069;DHT22;13887;57.196;-2.100;2022-07-29T02:49:06;16.05;79.74
22069;DHT22;13887;57.196;-2.100;2022-07-29T02:51:57;16.05;79.99
22069;DHT22;13887;57.196;-2.100;2022-07-29T02:54:31;16.05;79.72
22069;DHT22;13887;57.196;-2.100;2022-07-29T02:57:05;16.04;79.67
22069;DHT22;13887;57.196;-2.100;2022-07-29T02:59:34;16.06;79.74
22069;DHT22;13887;57.196;-2.100;2022-07-29T03:02:03;16.04;79.66
22069;DHT22;13887;57.196;-2.100;2022-07-29T03:04:31;16.05;79.83
22069;DHT22;13887;57.196;-2.100;2022-07-29T03:06:59;16.05;79.92
22069;DHT22;13887;57.196;-2.100;2022-07-29T03:09:27;16.02;79.97
22069;DHT22;13887;57.196;-2.100;2022-07-29T03:11:54;16.01;80.14
22069;DHT22;13887;57.196;-2.100;2022-07-29T03:14:22;16.00;80.16
22069;DHT22;13887;57.196;-2.100;2022-07-29T03:16:49;16.01;80.24
22069;DHT22;13887;57.196;-2.100;2022-07-29T03:19:18;16.01;80.32
22069;DHT22;13887;57.196;-2.100;2022-07-29T03:21:44;16.01;80.44
22069;DHT22;13887;57.196;-2.100;2022-07-29T03:24:23;16.01;80.40
22069;DHT22;13887;57.196;-2.100;2022-07-29T03:26:49;15.99;80.14
22069;DHT22;13887;57.196;-2.100;2022-07-29T03:29:16;15.99;80.40
22069;DHT22;13887;57.196;-2.100;2022-07-29T03:31:45;15.99;80.51
22069;DHT22;13887;57.196;-2.100;2022-07-29T03:34:11;15.98;80.46
22069;DHT22;13887;57.196;-2.100;2022-07-29T03:36:38;15.96;80.56
22069;DHT22;13887;57.196;-2.100;2022-07-29T03:39:05;15.95;80.61
22069;DHT22;13887;57.196;-2.100;2022-07-29T03:41:33;15.95;80.52
22069;DHT22;13887;57.196;-2.100;2022-07-29T03:44:00;15.92;80.70
22069;DHT22;13887;57.196;-2.100;2022-07-29T03:46:28;15.92;80.64
22069;DHT22;13887;57.196;-2.100;2022-07-29T03:48:58;15.91;80.80
22069;DHT22;13887;57.196;-2.100;2022-07-29T03:51:26;15.91;80.90
22069;DHT22;13887;57.196;-2.100;2022-07-29T03:54:01;15.91;80.92
22069;DHT22;13887;57.196;-2.100;2022-07-29T03:56:42;15.91;80.84
22069;DHT22;13887;57.196;-2.100;2022-07-29T03:59:15;15.91;80.88
22069;DHT22;13887;57.196;-2.100;2022-07-29T04:01:43;15.90;80.91
22069;DHT22;13887;57.196;-2.100;2022-07-29T04:04:10;15.90;80.91
22069;DHT22;13887;57.196;-2.100;2022-07-29T04:06:44;15.89;80.98
22069;DHT22;13887;57.196;-2.100;2022-07-29T04:09:14;15.88;80.85
22069;DHT22;13887;57.196;-2.100;2022-07-29T04:11:41;15.89;80.87
22069;DHT22;13887;57.196;-2.100;2022-07-29T04:14:27;15.87;81.01
22069;DHT22;13887;57.196;-2.100;2022-07-29T04:16:53;15.88;80.99
22069;DHT22;13887;57.196;-2.100;2022-07-29T04:19:20;15.88;80.85
22069;DHT22;13887;57.196;-2.100;2022-07-29T04:21:46;15.90;80.33
22069;DHT22;13887;57.196;-2.100;2022-07-29T04:24:12;15.91;80.03
22069;DHT22;13887;57.196;-2.100;2022-07-29T04:26:39;15.89;80.06
22069;DHT22;13887;57.196;-2.100;2022-07-29T04:29:05;15.90;80.24
22069;DHT22;13887;57.196;-2.100;2022-07-29T04:31:31;15.88;80.36
22069;DHT22;13887;57.196;-2.100;2022-07-29T04:33:58;15.87;80.47
22069;DHT22;13887;57.196;-2.100;2022-07-29T04:36:24;15.88;80.63
22069;DHT22;13887;57.196;-2.100;2022-07-29T04:38:55;15.87;80.56
22069;DHT22;13887;57.196;-2.100;2022-07-29T04:41:21;15.88;80.42
22069;DHT22;13887;57.196;-2.100;2022-07-29T04:43:49;15.87;80.62
22069;DHT22;13887;57.196;-2.100;2022-07-29T04:46:15;15.87;80.63
22069;DHT22;13887;57.196;-2.100;2022-07-29T04:48:41;15.87;80.65
22069;DHT22;13887;57.196;-2.100;2022-07-29T04:51:08;15.87;80.61
22069;DHT22;13887;57.196;-2.100;2022-07-29T04:53:34;15.87;80.32
22069;DHT22;13887;57.196;-2.100;2022-07-29T04:56:00;15.87;80.11
22069;DHT22;13887;57.196;-2.100;2022-07-29T04:58:26;15.87;80.28
22069;DHT22;13887;57.196;-2.100;2022-07-29T05:00:53;15.88;80.01
22069;DHT22;13887;57.196;-2.100;2022-07-29T05:03:19;15.88;80.04
22069;DHT22;13887;57.196;-2.100;2022-07-29T05:05:45;15.86;80.38
22069;DHT22;13887;57.196;-2.100;2022-07-29T05:08:12;15.86;80.40
22069;DHT22;13887;57.196;-2.100;2022-07-29T05:10:38;15.87;80.13
22069;DHT22;13887;57.196;-2.100;2022-07-29T05:13:05;15.86;80.30
22069;DHT22;13887;57.196;-2.100;2022-07-29T05:15:33;15.85;80.36
22069;DHT22;13887;57.196;-2.100;2022-07-29T05:18:00;15.84;80.39
22069;DHT22;13887;57.196;-2.100;2022-07-29T05:20:27;15.85;80.40
22069;DHT22;13887;57.196;-2.100;2022-07-29T05:22:58;15.86;80.49
22069;DHT22;13887;57.196;-2.100;2022-07-29T05:25:26;15.87;80.54
22069;DHT22;13887;57.196;-2.100;2022-07-29T05:28:09;15.90;79.85
22069;DHT22;13887;57.196;-2.100;2022-07-29T05:30:35;15.89;80.04
22069;DHT22;13887;57.196;-2.100;2022-07-29T05:33:02;15.89;79.90
22069;DHT22;13887;57.196;-2.100;2022-07-29T05:35:28;15.87;79.87
22069;DHT22;13887;57.196;-2.100;2022-07-29T05:37:54;15.88;79.98
22069;DHT22;13887;57.196;-2.100;2022-07-29T05:40:20;15.88;79.98
22069;DHT22;13887;57.196;-2.100;2022-07-29T05:42:47;15.89;80.25
22069;DHT22;13887;57.196;-2.100;2022-07-29T05:45:13;15.88;79.98
22069;DHT22;13887;57.196;-2.100;2022-07-29T05:47:39;15.87;79.73
22069;DHT22;13887;57.196;-2.100;2022-07-29T05:50:06;15.88;79.72
22069;DHT22;13887;57.196;-2.100;2022-07-29T05:52:32;15.86;79.77
22069;DHT22;13887;57.196;-2.100;2022-07-29T05:54:59;15.86;79.78
22069;DHT22;13887;57.196;-2.100;2022-07-29T05:57:28;15.87;79.88
22069;DHT22;13887;57.196;-2.100;2022-07-29T05:59:54;15.87;79.85
22069;DHT22;13887;57.196;-2.100;2022-07-29T06:02:21;15.87;80.07
22069;DHT22;13887;57.196;-2.100;2022-07-29T06:04:47;15.88;80.11
22069;DHT22;13887;57.196;-2.100;2022-07-29T06:07:15;15.89;80.01
22069;DHT22;13887;57.196;-2.100;2022-07-29T06:09:42;15.89;79.96
22069;DHT22;13887;57.196;-2.100;2022-07-29T06:12:08;15.87;79.72
22069;DHT22;13887;57.196;-2.100;2022-07-29T06:14:35;15.87;79.66
22069;DHT22;13887;57.196;-2.100;2022-07-29T06:17:02;15.89;79.74
22069;DHT22;13887;57.196;-2.100;2022-07-29T06:19:28;15.88;79.72
22069;DHT22;13887;57.196;-2.100;2022-07-29T06:21:54;15.87;79.84
22069;DHT22;13887;57.196;-2.100;2022-07-29T06:24:21;15.88;79.90
22069;DHT22;13887;57.196;-2.100;2022-07-29T06:26:47;15.89;79.87
22069;DHT22;13887;57.196;-2.100;2022-07-29T06:29:13;15.89;79.75
22069;DHT22;13887;57.196;-2.100;2022-07-29T06:31:39;15.92;79.69
22069;DHT22;13887;57.196;-2.100;2022-07-29T06:34:06;15.92;79.76
22069;DHT22;13887;57.196;-2.100;2022-07-29T06:36:35;15.93;79.75
22069;DHT22;13887;57.196;-2.100;2022-07-29T06:39:07;15.90;79.56
22069;DHT22;13887;57.196;-2.100;2022-07-29T06:41:33;15.92;79.81
22069;DHT22;13887;57.196;-2.100;2022-07-29T06:44:08;15.91;79.75
22069;DHT22;13887;57.196;-2.100;2022-07-29T06:46:35;15.92;79.99
22069;DHT22;13887;57.196;-2.100;2022-07-29T06:49:01;15.92;80.32
22069;DHT22;13887;57.196;-2.100;2022-07-29T06:51:28;15.92;80.00
22069;DHT22;13887;57.196;-2.100;2022-07-29T06:53:54;15.92;79.88
22069;DHT22;13887;57.196;-2.100;2022-07-29T06:56:32;15.90;80.11
22069;DHT22;13887;57.196;-2.100;2022-07-29T06:59:09;15.92;80.26
22069;DHT22;13887;57.196;-2.100;2022-07-29T07:01:38;15.95;80.07
22069;DHT22;13887;57.196;-2.100;2022-07-29T07:04:05;15.95;80.16
22069;DHT22;13887;57.196;-2.100;2022-07-29T07:06:31;15.93;80.00
22069;DHT22;13887;57.196;-2.100;2022-07-29T07:08:57;15.96;80.07
22069;DHT22;13887;57.196;-2.100;2022-07-29T07:11:24;15.96;80.08
22069;DHT22;13887;57.196;-2.100;2022-07-29T07:13:50;15.97;80.13
22069;DHT22;13887;57.196;-2.100;2022-07-29T07:16:16;15.96;80.09
22069;DHT22;13887;57.196;-2.100;2022-07-29T07:18:43;15.98;79.86
22069;DHT22;13887;57.196;-2.100;2022-07-29T07:21:11;15.98;79.97
22069;DHT22;13887;57.196;-2.100;2022-07-29T07:23:44;15.96;80.05
22069;DHT22;13887;57.196;-2.100;2022-07-29T07:26:10;15.99;80.02
22069;DHT22;13887;57.196;-2.100;2022-07-29T07:28:36;15.98;80.01
22069;DHT22;13887;57.196;-2.100;2022-07-29T07:31:03;15.98;80.07
22069;DHT22;13887;57.196;-2.100;2022-07-29T07:33:29;15.98;80.06
22069;DHT22;13887;57.196;-2.100;2022-07-29T07:35:55;16.02;79.88
22069;DHT22;13887;57.196;-2.100;2022-07-29T07:38:22;16.01;79.91
22069;DHT22;13887;57.196;-2.100;2022-07-29T07:40:48;16.00;80.02
22069;DHT22;13887;57.196;-2.100;2022-07-29T07:43:14;16.02;80.15
22069;DHT22;13887;57.196;-2.100;2022-07-29T07:45:40;16.01;80.04
22069;DHT22;13887;57.196;-2.100;2022-07-29T07:48:07;16.04;79.98
22069;DHT22;13887;57.196;-2.100;2022-07-29T07:50:36;16.02;79.97
22069;DHT22;13887;57.196;-2.100;2022-07-29T07:53:02;16.05;79.86
22069;DHT22;13887;57.196;-2.100;2022-07-29T07:55:29;16.06;79.99
22069;DHT22;13887;57.196;-2.100;2022-07-29T07:58:15;16.05;80.14
22069;DHT22;13887;57.196;-2.100;2022-07-29T08:00:41;16.07;80.01
22069;DHT22;13887;57.196;-2.100;2022-07-29T08:03:07;16.11;80.48
22069;DHT22;13887;57.196;-2.100;2022-07-29T08:05:43;16.11;80.64
22069;DHT22;13887;57.196;-2.100;2022-07-29T08:08:10;16.13;80.57
22069;DHT22;13887;57.196;-2.100;2022-07-29T08:10:36;16.13;80.59
22069;DHT22;13887;57.196;-2.100;2022-07-29T08:13:22;16.16;80.27
22069;DHT22;13887;57.196;-2.100;2022-07-29T08:15:49;16.18;80.07
22069;DHT22;13887;57.196;-2.100;2022-07-29T08:18:29;16.20;79.65
22069;DHT22;13887;57.196;-2.100;2022-07-29T08:20:57;16.20;79.87
22069;DHT22;13887;57.196;-2.100;2022-07-29T08:23:23;16.20;79.59
22069;DHT22;13887;57.196;-2.100;2022-07-29T08:25:51;16.24;79.55
22069;DHT22;13887;57.196;-2.100;2022-07-29T08:28:17;16.22;79.59
22069;DHT22;13887;57.196;-2.100;2022-07-29T08:30:43;16.21;79.75
22069;DHT22;13887;57.196;-2.100;2022-07-29T08:33:09;16.21;79.69
22069;DHT22;13887;57.196;-2.100;2022-07-29T08:35:36;16.25;79.59
22069;DHT22;13887;57.196;-2.100;2022-07-29T08:38:02;16.26;79.91
22069;DHT22;13887;57.196;-2.100;2022-07-29T08:40:29;16.27;79.68
22069;DHT22;13887;57.196;-2.100;2022-07-29T08:42:59;16.28;79.43
22069;DHT22;13887;57.196;-2.100;2022-07-29T08:45:42;16.32;79.45
22069;DHT22;13887;57.196;-2.100;2022-07-29T08:48:16;16.35;79.73
22069;DHT22;13887;57.196;-2.100;2022-07-29T08:50:43;16.39;79.54
22069;DHT22;13887;57.196;-2.100;2022-07-29T08:53:14;16.40;79.60
22069;DHT22;13887;57.196;-2.100;2022-07-29T08:55:42;16.43;79.17
22069;DHT22;13887;57.196;-2.100;2022-07-29T08:58:10;16.43;79.16
22069;DHT22;13887;57.196;-2.100;2022-07-29T09:00:47;16.44;79.01
22069;DHT22;13887;57.196;-2.100;2022-07-29T09:03:18;16.44;78.95
22069;DHT22;13887;57.196;-2.100;2022-07-29T09:05:45;16.44;78.83
22069;DHT22;13887;57.196;-2.100;2022-07-29T09:08:15;16.44;78.69
22069;DHT22;13887;57.196;-2.100;2022-07-29T09:10:42;16.47;78.63
22069;DHT22;13887;57.196;-2.100;2022-07-29T09:13:09;16.47;78.57
22069;DHT22;13887;57.196;-2.100;2022-07-29T09:15:35;16.47;78.49
22069;DHT22;13887;57.196;-2.100;2022-07-29T09:18:02;16.49;78.34
22069;DHT22;13887;57.196;-2.100;2022-07-29T09:20:28;16.50;78.21
22069;DHT22;13887;57.196;-2.100;2022-07-29T09:23:14;16.51;78.22
22069;DHT22;13887;57.196;-2.100;2022-07-29T09:25:50;16.52;78.18
22069;DHT22;13887;57.196;-2.100;2022-07-29T09:28:17;16.50;78.24
22069;DHT22;13887;57.196;-2.100;2022-07-29T09:30:55;16.51;78.18
22069;DHT22;13887;57.196;-2.100;2022-07-29T09:33:22;16.52;78.14
22069;DHT22;13887;57.196;-2.100;2022-07-29T09:36:06;16.52;78.11
22069;DHT22;13887;57.196;-2.100;2022-07-29T09:38:33;16.54;78.05
22069;DHT22;13887;57.196;-2.100;2022-07-29T09:41:01;16.51;78.21
22069;DHT22;13887;57.196;-2.100;2022-07-29T09:43:31;16.54;78.11
22069;DHT22;13887;57.196;-2.100;2022-07-29T09:46:10;16.56;77.96
22069;DHT22;13887;57.196;-2.100;2022-07-29T09:48:38;16.56;77.97
22069;DHT22;13887;57.196;-2.100;2022-07-29T09:51:05;16.56;78.03
22069;DHT22;13887;57.196;-2.100;2022-07-29T09:56:01;16.57;77.97
22069;DHT22;13887;57.196;-2.100;2022-07-29T09:58:28;16.59;77.92
22069;DHT22;13887;57.196;-2.100;2022-07-29T10:00:55;16.60;77.83
22069;DHT22;13887;57.196;-2.100;2022-07-29T10:03:22;16.60;77.79
22069;DHT22;13887;57.196;-2.100;2022-07-29T10:06:09;16.59;77.77
22069;DHT22;13887;57.196;-2.100;2022-07-29T10:08:37;16.60;77.77
22069;DHT22;13887;57.196;-2.100;2022-07-29T10:11:16;16.63;77.69
22069;DHT22;13887;57.196;-2.100;2022-07-29T10:13:45;16.63;77.71
22069;DHT22;13887;57.196;-2.100;2022-07-29T10:16:12;16.64;77.60
22069;DHT22;13887;57.196;-2.100;2022-07-29T10:18:43;16.65;77.52
22069;DHT22;13887;57.196;-2.100;2022-07-29T10:21:10;16.66;77.52
22069;DHT22;13887;57.196;-2.100;2022-07-29T10:23:48;16.65;77.49
22069;DHT22;13887;57.196;-2.100;2022-07-29T10:26:15;16.65;77.45
22069;DHT22;13887;57.196;-2.100;2022-07-29T10:28:42;16.67;77.39
22069;DHT22;13887;57.196;-2.100;2022-07-29T10:31:22;16.67;77.31
22069;DHT22;13887;57.196;-2.100;2022-07-29T10:34:07;16.69;77.31
22069;DHT22;13887;57.196;-2.100;2022-07-29T10:36:40;16.70;77.27
22069;DHT22;13887;57.196;-2.100;2022-07-29T10:42:22;16.70;77.18
22069;DHT22;13887;57.196;-2.100;2022-07-29T10:45:00;16.72;77.02
22069;DHT22;13887;57.196;-2.100;2022-07-29T10:47:27;16.72;76.98
22069;DHT22;13887;57.196;-2.100;2022-07-29T10:50:02;16.73;76.98
22069;DHT22;13887;57.196;-2.100;2022-07-29T10:55:38;16.76;76.84
22069;DHT22;13887;57.196;-2.100;2022-07-29T10:58:19;16.76;76.96
22069;DHT22;13887;57.196;-2.100;2022-07-29T11:00:51;16.79;76.82
22069;DHT22;13887;57.196;-2.100;2022-07-29T11:03:43;16.78;77.08
22069;DHT22;13887;57.196;-2.100;2022-07-29T11:06:16;16.78;77.05
22069;DHT22;13887;57.196;-2.100;2022-07-29T11:09:15;16.80;77.05
22069;DHT22;13887;57.196;-2.100;2022-07-29T11:11:42;16.80;77.21
22069;DHT22;13887;57.196;-2.100;2022-07-29T11:17:05;16.82;77.37
22069;DHT22;13887;57.196;-2.100;2022-07-29T11:19:35;16.84;77.08
22069;DHT22;13887;57.196;-2.100;2022-07-29T11:22:08;16.85;77.33
22069;DHT22;13887;57.196;-2.100;2022-07-29T11:24:35;16.85;77.26
22069;DHT22;13887;57.196;-2.100;2022-07-29T11:27:12;16.84;77.37
22069;DHT22;13887;57.196;-2.100;2022-07-29T11:29:59;16.86;77.23
22069;DHT22;13887;57.196;-2.100;2022-07-29T11:32:44;16.85;77.43
22069;DHT22;13887;57.196;-2.100;2022-07-29T11:35:22;16.86;77.38
22069;DHT22;13887;57.196;-2.100;2022-07-29T11:38:25;16.87;77.18
22069;DHT22;13887;57.196;-2.100;2022-07-29T11:43:48;17.01;77.18
22069;DHT22;13887;57.196;-2.100;2022-07-29T11:49:05;16.99;77.31
22069;DHT22;13887;57.196;-2.100;2022-07-29T11:51:38;17.00;77.33
22069;DHT22;13887;57.196;-2.100;2022-07-29T11:54:30;17.01;77.31
22069;DHT22;13887;57.196;-2.100;2022-07-29T11:57:00;17.02;77.16
22069;DHT22;13887;57.196;-2.100;2022-07-29T11:59:26;17.03;77.29
22069;DHT22;13887;57.196;-2.100;2022-07-29T12:02:01;17.46;74.74
22069;DHT22;13887;57.196;-2.100;2022-07-29T12:07:19;17.45;74.63
22069;DHT22;13887;57.196;-2.100;2022-07-29T12:10:01;17.26;75.43
22069;DHT22;13887;57.196;-2.100;2022-07-29T12:12:28;17.20;75.59
22069;DHT22;13887;57.196;-2.100;2022-07-29T12:14:54;17.19;75.97
22069;DHT22;13887;57.196;-2.100;2022-07-29T12:19:58;17.19;76.43
22069;DHT22;13887;57.196;-2.100;2022-07-29T12:22:29;17.20;76.66
22069;DHT22;13887;57.196;-2.100;2022-07-29T12:25:05;17.19;77.04
22069;DHT22;13887;57.196;-2.100;2022-07-29T12:28:03;17.20;77.15
22069;DHT22;13887;57.196;-2.100;2022-07-29T12:30:39;17.20;76.34
22069;DHT22;13887;57.196;-2.100;2022-07-29T12:33:16;17.21;77.20
22069;DHT22;13887;57.196;-2.100;2022-07-29T12:35:44;17.21;77.07
22069;DHT22;13887;57.196;-2.100;2022-07-29T12:38:20;17.22;77.18
22069;DHT22;13887;57.196;-2.100;2022-07-29T12:40:47;17.20;77.04
22069;DHT22;13887;57.196;-2.100;2022-07-29T12:43:16;17.22;77.47
22069;DHT22;13887;57.196;-2.100;2022-07-29T12:45:46;17.24;77.73
22069;DHT22;13887;57.196;-2.100;2022-07-29T12:48:13;17.24;77.70
22069;DHT22;13887;57.196;-2.100;2022-07-29T12:51:12;17.28;77.93
22069;DHT22;13887;57.196;-2.100;2022-07-29T12:53:40;17.32;77.69
22069;DHT22;13887;57.196;-2.100;2022-07-29T12:56:06;17.35;78.20
22069;DHT22;13887;57.196;-2.100;2022-07-29T12:59:20;17.38;78.21
22069;DHT22;13887;57.196;-2.100;2022-07-29T13:01:50;17.40;77.87
22069;DHT22;13887;57.196;-2.100;2022-07-29T13:04:29;17.43;78.59
22069;DHT22;13887;57.196;-2.100;2022-07-29T13:07:02;17.46;77.85
22069;DHT22;13887;57.196;-2.100;2022-07-29T13:09:44;17.45;78.72
22069;DHT22;13887;57.196;-2.100;2022-07-29T13:12:12;17.43;78.22
22069;DHT22;13887;57.196;-2.100;2022-07-29T13:14:44;17.44;78.23
22069;DHT22;13887;57.196;-2.100;2022-07-29T13:22:23;17.46;78.82
22069;DHT22;13887;57.196;-2.100;2022-07-29T13:27:19;17.78;75.92
22069;DHT22;13887;57.196;-2.100;2022-07-29T13:29:46;17.66;76.77
22069;DHT22;13887;57.196;-2.100;2022-07-29T13:32:13;17.63;77.21
22069;DHT22;13887;57.196;-2.100;2022-07-29T13:34:40;17.63;77.13
22069;DHT22;13887;57.196;-2.100;2022-07-29T13:37:06;17.62;77.39
22069;DHT22;13887;57.196;-2.100;2022-07-29T13:39:32;17.63;77.15
22069;DHT22;13887;57.196;-2.100;2022-07-29T13:41:59;17.61;77.53
22069;DHT22;13887;57.196;-2.100;2022-07-29T13:44:26;17.61;78.09
22069;DHT22;13887;57.196;-2.100;2022-07-29T13:46:52;17.59;78.07
22069;DHT22;13887;57.196;-2.100;2022-07-29T13:49:20;17.64;78.57
22069;DHT22;13887;57.196;-2.100;2022-07-29T13:51:46;17.64;78.86
22069;DHT22;13887;57.196;-2.100;2022-07-29T13:54:13;17.64;78.75
22069;DHT22;13887;57.196;-2.100;2022-07-29T13:56:39;17.65;78.16
22069;DHT22;13887;57.196;-2.100;2022-07-29T13:59:05;17.63;78.21
22069;DHT22;13887;57.196;-2.100;2022-07-29T14:01:32;17.65;78.26
22069;DHT22;13887;57.196;-2.100;2022-07-29T14:03:58;17.69;78.05
22069;DHT22;13887;57.196;-2.100;2022-07-29T14:06:25;17.70;78.64
22069;DHT22;13887;57.196;-2.100;2022-07-29T14:08:51;17.68;77.75
22069;DHT22;13887;57.196;-2.100;2022-07-29T14:11:17;17.65;77.55
22069;DHT22;13887;57.196;-2.100;2022-07-29T14:13:44;17.69;78.08
22069;DHT22;13887;57.196;-2.100;2022-07-29T14:16:10;17.68;77.61
22069;DHT22;13887;57.196;-2.100;2022-07-29T14:18:37;17.68;77.87
22069;DHT22;13887;57.196;-2.100;2022-07-29T14:21:03;17.69;77.82
22069;DHT22;13887;57.196;-2.100;2022-07-29T14:23:29;17.68;77.89
22069;DHT22;13887;57.196;-2.100;2022-07-29T14:25:55;17.68;77.61
22069;DHT22;13887;57.196;-2.100;2022-07-29T14:28:22;17.68;77.80
22069;DHT22;13887;57.196;-2.100;2022-07-29T14:30:48;17.68;77.77
22069;DHT22;13887;57.196;-2.100;2022-07-29T14:33:14;17.69;77.97
22069;DHT22;13887;57.196;-2.100;2022-07-29T14:35:41;17.73;78.95
22069;DHT22;13887;57.196;-2.100;2022-07-29T14:38:07;17.75;78.43
22069;DHT22;13887;57.196;-2.100;2022-07-29T14:40:33;17.76;79.22
22069;DHT22;13887;57.196;-2.100;2022-07-29T14:42:59;17.76;77.90
22069;DHT22;13887;57.196;-2.100;2022-07-29T14:45:26;17.75;78.17
22069;DHT22;13887;57.196;-2.100;2022-07-29T14:47:54;17.74;78.37
22069;DHT22;13887;57.196;-2.100;2022-07-29T14:50:23;17.74;78.39
22069;DHT22;13887;57.196;-2.100;2022-07-29T14:52:57;17.75;78.08
22069;DHT22;13887;57.196;-2.100;2022-07-29T14:55:23;17.80;78.84
22069;DHT22;13887;57.196;-2.100;2022-07-29T14:57:49;17.81;78.85
22069;DHT22;13887;57.196;-2.100;2022-07-29T15:00:16;17.83;78.32
22069;DHT22;13887;57.196;-2.100;2022-07-29T15:02:43;17.83;78.25
22069;DHT22;13887;57.196;-2.100;2022-07-29T15:05:26;17.83;78.06
22069;DHT22;13887;57.196;-2.100;2022-07-29T15:07:53;17.87;78.15
22069;DHT22;13887;57.196;-2.100;2022-07-29T15:10:19;17.90;78.92
22069;DHT22;13887;57.196;-2.100;2022-07-29T15:12:46;17.93;78.34
22069;DHT22;13887;57.196;-2.100;2022-07-29T15:15:12;17.95;78.85
22069;DHT22;13887;57.196;-2.100;2022-07-29T15:17:39;17.97;78.60
22069;DHT22;13887;57.196;-2.100;2022-07-29T15:20:06;17.98;77.79
22069;DHT22;13887;57.196;-2.100;2022-07-29T15:22:33;18.02;78.80
22069;DHT22;13887;57.196;-2.100;2022-07-29T15:24:59;18.03;78.45
22069;DHT22;13887;57.196;-2.100;2022-07-29T15:27:25;18.06;79.15
22069;DHT22;13887;57.196;-2.100;2022-07-29T15:29:52;18.10;79.20
22069;DHT22;13887;57.196;-2.100;2022-07-29T15:32:18;18.15;78.13
22069;DHT22;13887;57.196;-2.100;2022-07-29T15:34:44;18.21;79.49
22069;DHT22;13887;57.196;-2.100;2022-07-29T15:37:10;18.15;78.01
22069;DHT22;13887;57.196;-2.100;2022-07-29T15:39:37;18.15;78.37
22069;DHT22;13887;57.196;-2.100;2022-07-29T15:42:04;18.14;78.95
22069;DHT22;13887;57.196;-2.100;2022-07-29T15:44:30;18.14;77.79
22069;DHT22;13887;57.196;-2.100;2022-07-29T15:46:56;18.13;77.64
22069;DHT22;13887;57.196;-2.100;2022-07-29T15:49:37;18.13;77.24
22069;DHT22;13887;57.196;-2.100;2022-07-29T15:52:17;18.18;76.47
22069;DHT22;13887;57.196;-2.100;2022-07-29T15:54:44;18.17;77.01
22069;DHT22;13887;57.196;-2.100;2022-07-29T15:57:11;18.23;77.55
22069;DHT22;13887;57.196;-2.100;2022-07-29T15:59:38;18.24;75.92
22069;DHT22;13887;57.196;-2.100;2022-07-29T16:02:04;18.25;76.61
22069;DHT22;13887;57.196;-2.100;2022-07-29T16:04:31;18.22;76.73
22069;DHT22;13887;57.196;-2.100;2022-07-29T16:06:58;18.24;76.07
22069;DHT22;13887;57.196;-2.100;2022-07-29T16:09:25;18.21;76.43
22069;DHT22;13887;57.196;-2.100;2022-07-29T16:11:51;18.22;76.61
22069;DHT22;13887;57.196;-2.100;2022-07-29T16:14:18;18.24;76.16